sensor_id;sensor_type;location;lat;lon;timestamp;P1;durP1;ratioP1;P2;durP2;ratioP2
27744;SDS011;61387;48.112;8.616;2023-07-28T00:00:50;5.40;;;3.00;;
27744;SDS011;61387;48.112;8.616;2023-07-28T00:03:16;4.77;;;2.60;;
27744;SDS011;61387;48.112;8.616;2023-07-28T00:05:41;3.17;;;2.60;;
27744;SDS011;61387;48.112;8.616;2023-07-28T00:08:07;6.40;;;2.93;;
27744;SDS011;61387;48.112;8.616;2023-07-28T00:10:33;4.17;;;2.50;;
27744;SDS011;61387;48.112;8.616;2023-07-28T00:12:59;5.43;;;2.80;;
27744;SDS011;61387;48.112;8.616;2023-07-28T00:15:27;4.57;;;2.87;;
27744;SDS011;61387;48.112;8.616;2023-07-28T00:17:53;5.10;;;2.93;;
27744;SDS011;61387;48.112;8.616;2023-07-28T00:20:18;5.50;;;2.97;;
27744;SDS011;61387;48.112;8.616;2023-07-28T00:22:44;5.13;;;3.00;;
27744;SDS011;61387;48.112;8.616;2023-07-28T00:25:10;4.87;;;2.90;;
27744;SDS011;61387;48.112;8.616;2023-07-28T00:27:35;5.57;;;3.33;;
27744;SDS011;61387;48.112;8.616;2023-07-28T00:30:01;4.80;;;2.87;;
27744;SDS011;61387;48.112;8.616;2023-07-28T00:32:27;3.90;;;2.97;;
27744;SDS011;61387;48.112;8.616;2023-07-28T00:34:53;4.63;;;3.07;;
27744;SDS011;61387;48.112;8.616;2023-07-28T00:37:19;4.10;;;3.07;;
27744;SDS011;61387;48.112;8.616;2023-07-28T00:39:45;5.03;;;2.97;;
27744;SDS011;61387;48.112;8.616;2023-07-28T00:42:11;4.67;;;2.90;;
27744;SDS011;61387;48.112;8.616;2023-07-28T00:44:37;5.10;;;3.10;;
27744;SDS011;61387;48.112;8.616;2023-07-28T00:47:03;5.47;;;2.63;;
27744;SDS011;61387;48.112;8.616;2023-07-28T00:49:28;4.50;;;2.87;;
27744;SDS011;61387;48.112;8.616;2023-07-28T00:51:55;4.20;;;2.83;;
27744;SDS011;61387;48.112;8.616;2023-07-28T00:54:21;4.70;;;2.90;;
27744;SDS011;61387;48.112;8.616;2023-07-28T00:56:47;4.93;;;3.20;;
27744;SDS011;61387;48.112;8.616;2023-07-28T00:59:14;3.10;;;2.50;;
27744;SDS011;61387;48.112;8.616;2023-07-28T01:01:40;4.20;;;2.80;;
27744;SDS011;61387;48.112;8.616;2023-07-28T01:04:06;5.70;;;2.90;;
27744;SDS011;61387;48.112;8.616;2023-07-28T01:09:21;6.43;;;3.43;;
27744;SDS011;61387;48.112;8.616;2023-07-28T01:11:52;6.67;;;3.07;;
27744;SDS011;61387;48.112;8.616;2023-07-28T01:14:22;5.03;;;3.13;;
27744;SDS011;61387;48.112;8.616;2023-07-28T01:16:48;6.20;;;3.00;;
27744;SDS011;61387;48.112;8.616;2023-07-28T01:19:14;4.93;;;2.60;;
27744;SDS011;61387;48.112;8.616;2023-07-28T01:21:43;4.27;;;2.40;;
27744;SDS011;61387;48.112;8.616;2023-07-28T01:24:19;2.60;;;2.20;;
27744;SDS011;61387;48.112;8.616;2023-07-28T01:26:53;5.43;;;2.90;;
27744;SDS011;61387;48.112;8.616;2023-07-28T01:29:19;4.87;;;3.40;;
27744;SDS011;61387;48.112;8.616;2023-07-28T01:31:46;5.67;;;3.70;;
27744;SDS011;61387;48.112;8.616;2023-07-28T01:34:12;5.97;;;3.43;;
27744;SDS011;61387;48.112;8.616;2023-07-28T01:36:38;4.90;;;3.30;;
27744;SDS011;61387;48.112;8.616;2023-07-28T01:39:04;4.97;;;3.60;;
27744;SDS011;61387;48.112;8.616;2023-07-28T01:41:30;4.97;;;3.33;;
27744;SDS011;61387;48.112;8.616;2023-07-28T01:43:56;6.27;;;3.70;;
27744;SDS011;61387;48.112;8.616;2023-07-28T01:46:22;4.83;;;3.47;;
27744;SDS011;61387;48.112;8.616;2023-07-28T01:48:47;4.30;;;3.43;;
27744;SDS011;61387;48.112;8.616;2023-07-28T01:51:13;5.13;;;3.57;;
27744;SDS011;61387;48.112;8.616;2023-07-28T01:53:39;6.20;;;3.73;;
27744;SDS011;61387;48.112;8.616;2023-07-28T01:56:05;4.67;;;3.57;;
27744;SDS011;61387;48.112;8.616;2023-07-28T01:58:31;6.07;;;3.80;;
27744;SDS011;61387;48.112;8.616;2023-07-28T02:00:57;5.53;;;3.70;;
27744;SDS011;61387;48.112;8.616;2023-07-28T02:03:23;4.63;;;3.40;;
27744;SDS011;61387;48.112;8.616;2023-07-28T02:05:48;6.20;;;3.73;;
27744;SDS011;61387;48.112;8.616;2023-07-28T02:08:14;8.37;;;3.77;;
27744;SDS011;61387;48.112;8.616;2023-07-28T02:10:40;5.40;;;3.63;;
27744;SDS011;61387;48.112;8.616;2023-07-28T02:13:06;7.03;;;3.70;;
27744;SDS011;61387;48.112;8.616;2023-07-28T02:15:32;6.53;;;3.50;;
27744;SDS011;61387;48.112;8.616;2023-07-28T02:17:58;4.60;;;3.27;;
27744;SDS011;61387;48.112;8.616;2023-07-28T02:20:23;6.43;;;3.93;;
27744;SDS011;61387;48.112;8.616;2023-07-28T02:22:49;7.23;;;3.63;;
27744;SDS011;61387;48.112;8.616;2023-07-28T02:25:15;5.80;;;3.70;;
27744;SDS011;61387;48.112;8.616;2023-07-28T02:27:41;5.37;;;3.37;;
27744;SDS011;61387;48.112;8.616;2023-07-28T02:30:07;6.12;;;3.60;;
27744;SDS011;61387;48.112;8.616;2023-07-28T02:32:32;4.70;;;3.20;;
27744;SDS011;61387;48.112;8.616;2023-07-28T02:34:59;6.93;;;3.57;;
27744;SDS011;61387;48.112;8.616;2023-07-28T02:37:25;5.37;;;3.60;;
27744;SDS011;61387;48.112;8.616;2023-07-28T02:39:51;6.97;;;3.37;;
27744;SDS011;61387;48.112;8.616;2023-07-28T02:42:16;7.50;;;3.53;;
27744;SDS011;61387;48.112;8.616;2023-07-28T02:44:42;4.70;;;3.00;;
27744;SDS011;61387;48.112;8.616;2023-07-28T02:47:08;4.63;;;3.00;;
27744;SDS011;61387;48.112;8.616;2023-07-28T02:49:34;5.97;;;2.90;;
27744;SDS011;61387;48.112;8.616;2023-07-28T02:52:00;5.40;;;3.60;;
27744;SDS011;61387;48.112;8.616;2023-07-28T02:54:25;4.97;;;3.17;;
27744;SDS011;61387;48.112;8.616;2023-07-28T02:56:51;5.40;;;3.47;;
27744;SDS011;61387;48.112;8.616;2023-07-28T02:59:17;7.33;;;3.70;;
27744;SDS011;61387;48.112;8.616;2023-07-28T03:01:43;4.97;;;3.37;;
27744;SDS011;61387;48.112;8.616;2023-07-28T03:04:09;6.37;;;4.00;;
27744;SDS011;61387;48.112;8.616;2023-07-28T03:06:34;5.73;;;3.77;;
27744;SDS011;61387;48.112;8.616;2023-07-28T03:09:00;4.70;;;3.40;;
27744;SDS011;61387;48.112;8.616;2023-07-28T03:11:26;5.67;;;3.27;;
27744;SDS011;61387;48.112;8.616;2023-07-28T03:13:52;4.30;;;2.63;;
27744;SDS011;61387;48.112;8.616;2023-07-28T03:16:18;3.90;;;2.80;;
27744;SDS011;61387;48.112;8.616;2023-07-28T03:18:44;4.50;;;2.97;;
27744;SDS011;61387;48.112;8.616;2023-07-28T03:21:10;4.90;;;3.57;;
27744;SDS011;61387;48.112;8.616;2023-07-28T03:23:36;7.17;;;3.17;;
27744;SDS011;61387;48.112;8.616;2023-07-28T03:26:02;4.57;;;2.93;;
27744;SDS011;61387;48.112;8.616;2023-07-28T03:28:27;4.13;;;3.10;;
27744;SDS011;61387;48.112;8.616;2023-07-28T03:30:53;5.03;;;3.43;;
27744;SDS011;61387;48.112;8.616;2023-07-28T03:33:19;5.43;;;3.40;;
27744;SDS011;61387;48.112;8.616;2023-07-28T03:35:45;4.43;;;3.33;;
27744;SDS011;61387;48.112;8.616;2023-07-28T03:38:11;4.80;;;3.40;;
27744;SDS011;61387;48.112;8.616;2023-07-28T03:40:37;5.20;;;3.40;;
27744;SDS011;61387;48.112;8.616;2023-07-28T03:43:03;4.53;;;2.87;;
27744;SDS011;61387;48.112;8.616;2023-07-28T03:45:29;5.43;;;3.10;;
27744;SDS011;61387;48.112;8.616;2023-07-28T03:47:55;3.60;;;2.80;;
27744;SDS011;61387;48.112;8.616;2023-07-28T03:50:20;3.80;;;2.80;;
27744;SDS011;61387;48.112;8.616;2023-07-28T03:52:46;5.20;;;3.07;;
27744;SDS011;61387;48.112;8.616;2023-07-28T03:55:12;4.37;;;3.17;;
27744;SDS011;61387;48.112;8.616;2023-07-28T03:57:38;4.63;;;3.20;;
27744;SDS011;61387;48.112;8.616;2023-07-28T04:00:04;6.03;;;3.37;;
27744;SDS011;61387;48.112;8.616;2023-07-28T04:02:31;4.00;;;3.30;;
27744;SDS011;61387;48.112;8.616;2023-07-28T04:04:57;5.03;;;3.20;;
27744;SDS011;61387;48.112;8.616;2023-07-28T04:07:22;8.07;;;5.83;;
27744;SDS011;61387;48.112;8.616;2023-07-28T04:09:48;9.10;;;5.40;;
27744;SDS011;61387;48.112;8.616;2023-07-28T04:12:14;10.50;;;5.33;;
27744;SDS011;61387;48.112;8.616;2023-07-28T04:14:40;5.87;;;4.50;;
27744;SDS011;61387;48.112;8.616;2023-07-28T04:17:06;6.63;;;4.67;;
27744;SDS011;61387;48.112;8.616;2023-07-28T04:19:32;7.43;;;5.07;;
27744;SDS011;61387;48.112;8.616;2023-07-28T04:21:59;10.07;;;5.37;;
27744;SDS011;61387;48.112;8.616;2023-07-28T04:24:25;6.77;;;4.60;;
27744;SDS011;61387;48.112;8.616;2023-07-28T04:26:52;8.50;;;4.53;;
27744;SDS011;61387;48.112;8.616;2023-07-28T04:29:18;6.70;;;4.80;;
27744;SDS011;61387;48.112;8.616;2023-07-28T04:31:43;11.17;;;5.17;;
27744;SDS011;61387;48.112;8.616;2023-07-28T04:34:09;7.00;;;5.30;;
27744;SDS011;61387;48.112;8.616;2023-07-28T04:36:35;10.53;;;5.27;;
27744;SDS011;61387;48.112;8.616;2023-07-28T04:39:01;10.20;;;5.63;;
27744;SDS011;61387;48.112;8.616;2023-07-28T04:41:27;7.70;;;4.90;;
27744;SDS011;61387;48.112;8.616;2023-07-28T04:43:53;7.90;;;5.00;;
27744;SDS011;61387;48.112;8.616;2023-07-28T04:46:18;6.90;;;4.70;;
27744;SDS011;61387;48.112;8.616;2023-07-28T04:48:45;9.30;;;4.70;;
27744;SDS011;61387;48.112;8.616;2023-07-28T04:51:11;9.20;;;5.13;;
27744;SDS011;61387;48.112;8.616;2023-07-28T04:53:37;11.07;;;6.10;;
27744;SDS011;61387;48.112;8.616;2023-07-28T04:56:03;13.97;;;8.93;;
27744;SDS011;61387;48.112;8.616;2023-07-28T04:58:29;7.83;;;4.80;;
27744;SDS011;61387;48.112;8.616;2023-07-28T05:00:55;8.13;;;4.83;;
27744;SDS011;61387;48.112;8.616;2023-07-28T05:03:21;9.73;;;4.50;;
27744;SDS011;61387;48.112;8.616;2023-07-28T05:05:46;8.07;;;5.20;;
27744;SDS011;61387;48.112;8.616;2023-07-28T05:08:12;10.00;;;5.60;;
27744;SDS011;61387;48.112;8.616;2023-07-28T05:10:40;7.93;;;4.63;;
27744;SDS011;61387;48.112;8.616;2023-07-28T05:13:07;7.40;;;4.70;;
27744;SDS011;61387;48.112;8.616;2023-07-28T05:15:32;7.47;;;5.03;;
27744;SDS011;61387;48.112;8.616;2023-07-28T05:17:58;8.07;;;4.50;;
27744;SDS011;61387;48.112;8.616;2023-07-28T05:20:24;8.43;;;4.80;;
27744;SDS011;61387;48.112;8.616;2023-07-28T05:22:50;7.20;;;4.33;;
27744;SDS011;61387;48.112;8.616;2023-07-28T05:25:16;9.27;;;4.40;;
27744;SDS011;61387;48.112;8.616;2023-07-28T05:27:42;6.93;;;4.20;;
27744;SDS011;61387;48.112;8.616;2023-07-28T05:30:08;6.07;;;3.93;;
27744;SDS011;61387;48.112;8.616;2023-07-28T05:32:33;7.70;;;4.63;;
27744;SDS011;61387;48.112;8.616;2023-07-28T05:34:59;8.17;;;5.00;;
27744;SDS011;61387;48.112;8.616;2023-07-28T05:37:25;7.57;;;4.87;;
27744;SDS011;61387;48.112;8.616;2023-07-28T05:39:51;7.60;;;4.07;;
27744;SDS011;61387;48.112;8.616;2023-07-28T05:42:17;7.50;;;4.70;;
27744;SDS011;61387;48.112;8.616;2023-07-28T05:44:43;6.90;;;4.33;;
27744;SDS011;61387;48.112;8.616;2023-07-28T05:47:09;8.67;;;4.60;;
27744;SDS011;61387;48.112;8.616;2023-07-28T05:49:34;8.20;;;4.50;;
27744;SDS011;61387;48.112;8.616;2023-07-28T05:52:00;7.17;;;4.37;;
27744;SDS011;61387;48.112;8.616;2023-07-28T05:54:26;5.70;;;4.23;;
27744;SDS011;61387;48.112;8.616;2023-07-28T05:56:52;6.17;;;3.93;;
27744;SDS011;61387;48.112;8.616;2023-07-28T05:59:18;5.07;;;3.50;;
27744;SDS011;61387;48.112;8.616;2023-07-28T06:01:44;6.93;;;3.57;;
27744;SDS011;61387;48.112;8.616;2023-07-28T06:04:10;7.10;;;3.43;;
27744;SDS011;61387;48.112;8.616;2023-07-28T06:06:36;4.13;;;3.00;;
27744;SDS011;61387;48.112;8.616;2023-07-28T06:09:01;7.70;;;3.33;;
27744;SDS011;61387;48.112;8.616;2023-07-28T06:11:27;5.63;;;2.83;;
27744;SDS011;61387;48.112;8.616;2023-07-28T06:13:53;6.90;;;2.57;;
27744;SDS011;61387;48.112;8.616;2023-07-28T06:16:19;4.07;;;2.37;;
27744;SDS011;61387;48.112;8.616;2023-07-28T06:18:44;4.97;;;2.50;;
27744;SDS011;61387;48.112;8.616;2023-07-28T06:21:10;3.03;;;2.37;;
27744;SDS011;61387;48.112;8.616;2023-07-28T06:23:36;8.33;;;2.83;;
27744;SDS011;61387;48.112;8.616;2023-07-28T06:26:02;3.87;;;2.20;;
27744;SDS011;61387;48.112;8.616;2023-07-28T06:28:28;3.03;;;2.15;;
27744;SDS011;61387;48.112;8.616;2023-07-28T06:30:54;6.33;;;2.43;;
27744;SDS011;61387;48.112;8.616;2023-07-28T06:33:20;4.97;;;2.50;;
27744;SDS011;61387;48.112;8.616;2023-07-28T06:35:46;7.33;;;2.57;;
27744;SDS011;61387;48.112;8.616;2023-07-28T06:38:12;8.47;;;2.97;;
27744;SDS011;61387;48.112;8.616;2023-07-28T06:40:38;5.03;;;2.62;;
27744;SDS011;61387;48.112;8.616;2023-07-28T06:43:04;5.83;;;2.70;;
27744;SDS011;61387;48.112;8.616;2023-07-28T06:45:30;4.68;;;2.70;;
27744;SDS011;61387;48.112;8.616;2023-07-28T06:47:55;6.63;;;2.87;;
27744;SDS011;61387;48.112;8.616;2023-07-28T06:50:21;4.20;;;2.40;;
27744;SDS011;61387;48.112;8.616;2023-07-28T06:52:47;3.87;;;2.43;;
27744;SDS011;61387;48.112;8.616;2023-07-28T06:55:14;5.70;;;2.70;;
27744;SDS011;61387;48.112;8.616;2023-07-28T06:57:40;4.82;;;2.50;;
27744;SDS011;61387;48.112;8.616;2023-07-28T07:00:06;3.10;;;2.50;;
27744;SDS011;61387;48.112;8.616;2023-07-28T07:02:34;6.57;;;2.95;;
27744;SDS011;61387;48.112;8.616;2023-07-28T07:05:00;3.85;;;2.45;;
27744;SDS011;61387;48.112;8.616;2023-07-28T07:07:26;3.80;;;2.57;;
27744;SDS011;61387;48.112;8.616;2023-07-28T07:09:52;3.20;;;2.20;;
27744;SDS011;61387;48.112;8.616;2023-07-28T07:12:17;5.25;;;2.78;;
27744;SDS011;61387;48.112;8.616;2023-07-28T07:14:45;3.30;;;2.25;;
27744;SDS011;61387;48.112;8.616;2023-07-28T07:17:10;4.12;;;2.90;;
27744;SDS011;61387;48.112;8.616;2023-07-28T07:19:36;4.87;;;2.70;;
27744;SDS011;61387;48.112;8.616;2023-07-28T07:22:02;4.30;;;2.50;;
27744;SDS011;61387;48.112;8.616;2023-07-28T07:24:29;4.67;;;2.40;;
27744;SDS011;61387;48.112;8.616;2023-07-28T07:26:54;3.90;;;2.50;;
27744;SDS011;61387;48.112;8.616;2023-07-28T07:29:20;3.63;;;2.40;;
27744;SDS011;61387;48.112;8.616;2023-07-28T07:31:46;4.40;;;2.45;;
27744;SDS011;61387;48.112;8.616;2023-07-28T07:34:12;4.37;;;2.80;;
27744;SDS011;61387;48.112;8.616;2023-07-28T07:36:38;4.80;;;2.67;;
27744;SDS011;61387;48.112;8.616;2023-07-28T07:39:04;5.40;;;2.50;;
27744;SDS011;61387;48.112;8.616;2023-07-28T07:41:30;4.68;;;2.60;;
27744;SDS011;61387;48.112;8.616;2023-07-28T07:43:56;4.10;;;2.50;;
27744;SDS011;61387;48.112;8.616;2023-07-28T07:46:22;4.68;;;2.53;;
27744;SDS011;61387;48.112;8.616;2023-07-28T07:48:48;4.30;;;2.67;;
27744;SDS011;61387;48.112;8.616;2023-07-28T07:51:14;4.18;;;2.60;;
27744;SDS011;61387;48.112;8.616;2023-07-28T07:53:40;5.13;;;2.57;;
27744;SDS011;61387;48.112;8.616;2023-07-28T07:56:06;6.43;;;3.00;;
27744;SDS011;61387;48.112;8.616;2023-07-28T07:58:35;8.30;;;2.90;;
27744;SDS011;61387;48.112;8.616;2023-07-28T08:01:01;3.70;;;2.42;;
27744;SDS011;61387;48.112;8.616;2023-07-28T08:03:27;4.78;;;2.50;;
27744;SDS011;61387;48.112;8.616;2023-07-28T08:05:53;6.78;;;2.80;;
27744;SDS011;61387;48.112;8.616;2023-07-28T08:08:19;4.40;;;2.95;;
27744;SDS011;61387;48.112;8.616;2023-07-28T08:10:45;5.30;;;2.30;;
27744;SDS011;61387;48.112;8.616;2023-07-28T08:13:12;5.50;;;2.40;;
27744;SDS011;61387;48.112;8.616;2023-07-28T08:15:38;5.00;;;2.97;;
27744;SDS011;61387;48.112;8.616;2023-07-28T08:18:04;5.43;;;3.00;;
27744;SDS011;61387;48.112;8.616;2023-07-28T08:20:30;4.57;;;2.40;;
27744;SDS011;61387;48.112;8.616;2023-07-28T08:22:55;4.03;;;2.90;;
27744;SDS011;61387;48.112;8.616;2023-07-28T08:25:21;5.07;;;2.70;;
27744;SDS011;61387;48.112;8.616;2023-07-28T08:27:50;3.92;;;2.75;;
27744;SDS011;61387;48.112;8.616;2023-07-28T08:30:15;4.17;;;2.60;;
27744;SDS011;61387;48.112;8.616;2023-07-28T08:32:42;4.10;;;2.60;;
27744;SDS011;61387;48.112;8.616;2023-07-28T08:35:08;3.45;;;2.33;;
27744;SDS011;61387;48.112;8.616;2023-07-28T08:37:34;4.30;;;2.55;;
27744;SDS011;61387;48.112;8.616;2023-07-28T08:39:59;5.07;;;2.50;;
27744;SDS011;61387;48.112;8.616;2023-07-28T08:42:25;5.87;;;2.30;;
27744;SDS011;61387;48.112;8.616;2023-07-28T08:44:51;6.00;;;2.50;;
27744;SDS011;61387;48.112;8.616;2023-07-28T08:47:17;2.73;;;2.10;;
27744;SDS011;61387;48.112;8.616;2023-07-28T08:49:44;4.97;;;2.20;;
27744;SDS011;61387;48.112;8.616;2023-07-28T08:52:10;4.25;;;2.85;;
27744;SDS011;61387;48.112;8.616;2023-07-28T08:54:39;4.10;;;2.60;;
27744;SDS011;61387;48.112;8.616;2023-07-28T08:57:05;5.00;;;2.30;;
27744;SDS011;61387;48.112;8.616;2023-07-28T08:59:30;3.92;;;2.80;;
27744;SDS011;61387;48.112;8.616;2023-07-28T09:01:57;4.30;;;2.50;;
27744;SDS011;61387;48.112;8.616;2023-07-28T09:04:24;4.75;;;2.75;;
27744;SDS011;61387;48.112;8.616;2023-07-28T09:06:50;4.28;;;2.53;;
27744;SDS011;61387;48.112;8.616;2023-07-28T09:09:18;5.25;;;2.87;;
27744;SDS011;61387;48.112;8.616;2023-07-28T09:11:47;4.30;;;2.47;;
27744;SDS011;61387;48.112;8.616;2023-07-28T09:14:15;2.55;;;2.08;;
27744;SDS011;61387;48.112;8.616;2023-07-28T09:16:43;4.07;;;2.60;;
27744;SDS011;61387;48.112;8.616;2023-07-28T09:19:09;4.10;;;2.40;;
27744;SDS011;61387;48.112;8.616;2023-07-28T09:21:35;5.70;;;2.70;;
27744;SDS011;61387;48.112;8.616;2023-07-28T09:24:20;4.50;;;2.53;;
27744;SDS011;61387;48.112;8.616;2023-07-28T09:26:47;3.72;;;2.80;;
27744;SDS011;61387;48.112;8.616;2023-07-28T09:29:17;6.18;;;2.62;;
27744;SDS011;61387;48.112;8.616;2023-07-28T09:31:44;3.47;;;2.40;;
27744;SDS011;61387;48.112;8.616;2023-07-28T09:34:22;3.83;;;2.42;;
27744;SDS011;61387;48.112;8.616;2023-07-28T09:36:51;4.50;;;2.55;;
27744;SDS011;61387;48.112;8.616;2023-07-28T09:39:21;4.70;;;2.47;;
27744;SDS011;61387;48.112;8.616;2023-07-28T09:41:47;3.73;;;2.80;;
27744;SDS011;61387;48.112;8.616;2023-07-28T09:44:14;3.78;;;2.35;;
27744;SDS011;61387;48.112;8.616;2023-07-28T09:46:53;5.10;;;2.75;;
27744;SDS011;61387;48.112;8.616;2023-07-28T09:49:36;3.87;;;2.37;;
27744;SDS011;61387;48.112;8.616;2023-07-28T09:52:05;2.85;;;2.33;;
27744;SDS011;61387;48.112;8.616;2023-07-28T09:54:34;3.67;;;2.28;;
27744;SDS011;61387;48.112;8.616;2023-07-28T09:57:04;4.32;;;2.53;;
27744;SDS011;61387;48.112;8.616;2023-07-28T09:59:37;4.12;;;2.67;;
27744;SDS011;61387;48.112;8.616;2023-07-28T10:02:04;4.07;;;2.75;;
27744;SDS011;61387;48.112;8.616;2023-07-28T10:04:31;5.43;;;2.58;;
27744;SDS011;61387;48.112;8.616;2023-07-28T10:06:57;3.95;;;2.53;;
27744;SDS011;61387;48.112;8.616;2023-07-28T10:09:26;4.17;;;2.63;;
27744;SDS011;61387;48.112;8.616;2023-07-28T10:11:55;4.10;;;2.65;;
27744;SDS011;61387;48.112;8.616;2023-07-28T10:14:31;3.97;;;3.00;;
27744;SDS011;61387;48.112;8.616;2023-07-28T10:17:02;5.07;;;2.62;;
27744;SDS011;61387;48.112;8.616;2023-07-28T10:19:29;3.83;;;2.33;;
27744;SDS011;61387;48.112;8.616;2023-07-28T10:22:00;3.60;;;2.50;;
27744;SDS011;61387;48.112;8.616;2023-07-28T10:27:30;4.68;;;2.70;;
27744;SDS011;61387;48.112;8.616;2023-07-28T10:30:00;4.18;;;2.75;;
27744;SDS011;61387;48.112;8.616;2023-07-28T10:32:42;4.18;;;2.67;;
27744;SDS011;61387;48.112;8.616;2023-07-28T10:35:30;3.92;;;2.33;;
27744;SDS011;61387;48.112;8.616;2023-07-28T10:37:57;4.82;;;2.53;;
27744;SDS011;61387;48.112;8.616;2023-07-28T10:42:55;3.37;;;2.28;;
27744;SDS011;61387;48.112;8.616;2023-07-28T10:45:23;6.32;;;2.95;;
27744;SDS011;61387;48.112;8.616;2023-07-28T10:47:50;3.58;;;2.50;;
27744;SDS011;61387;48.112;8.616;2023-07-28T10:50:17;3.58;;;2.58;;
27744;SDS011;61387;48.112;8.616;2023-07-28T10:52:44;3.37;;;2.47;;
27744;SDS011;61387;48.112;8.616;2023-07-28T10:55:15;3.53;;;2.60;;
27744;SDS011;61387;48.112;8.616;2023-07-28T10:57:46;4.68;;;2.95;;
27744;SDS011;61387;48.112;8.616;2023-07-28T11:00:13;5.82;;;2.83;;
27744;SDS011;61387;48.112;8.616;2023-07-28T11:02:44;4.32;;;2.78;;
27744;SDS011;61387;48.112;8.616;2023-07-28T11:05:11;3.55;;;2.60;;
27744;SDS011;61387;48.112;8.616;2023-07-28T11:07:56;4.72;;;2.47;;
27744;SDS011;61387;48.112;8.616;2023-07-28T11:10:23;4.18;;;2.62;;
27744;SDS011;61387;48.112;8.616;2023-07-28T11:12:50;3.47;;;2.58;;
27744;SDS011;61387;48.112;8.616;2023-07-28T11:15:17;4.72;;;2.67;;
27744;SDS011;61387;48.112;8.616;2023-07-28T11:17:45;3.28;;;2.55;;
27744;SDS011;61387;48.112;8.616;2023-07-28T11:20:21;3.45;;;2.53;;
27744;SDS011;61387;48.112;8.616;2023-07-28T11:25:24;4.05;;;2.70;;
27744;SDS011;61387;48.112;8.616;2023-07-28T11:27:52;4.03;;;2.45;;
27744;SDS011;61387;48.112;8.616;2023-07-28T11:30:19;4.62;;;2.80;;
27744;SDS011;61387;48.112;8.616;2023-07-28T11:32:46;3.65;;;2.33;;
27744;SDS011;61387;48.112;8.616;2023-07-28T11:35:12;4.05;;;2.90;;
27744;SDS011;61387;48.112;8.616;2023-07-28T11:37:40;3.87;;;2.65;;
27744;SDS011;61387;48.112;8.616;2023-07-28T11:40:08;4.85;;;2.85;;
27744;SDS011;61387;48.112;8.616;2023-07-28T11:42:39;4.40;;;2.87;;
27744;SDS011;61387;48.112;8.616;2023-07-28T11:45:06;5.03;;;2.75;;
27744;SDS011;61387;48.112;8.616;2023-07-28T11:47:33;3.42;;;2.50;;
27744;SDS011;61387;48.112;8.616;2023-07-28T11:49:59;3.50;;;2.60;;
27744;SDS011;61387;48.112;8.616;2023-07-28T11:55:01;5.20;;;3.22;;
27744;SDS011;61387;48.112;8.616;2023-07-28T11:57:28;4.72;;;2.70;;
27744;SDS011;61387;48.112;8.616;2023-07-28T11:59:57;6.15;;;3.05;;
27744;SDS011;61387;48.112;8.616;2023-07-28T12:02:24;4.62;;;2.75;;
27744;SDS011;61387;48.112;8.616;2023-07-28T12:04:51;5.82;;;3.20;;
27744;SDS011;61387;48.112;8.616;2023-07-28T12:07:19;3.90;;;2.55;;
27744;SDS011;61387;48.112;8.616;2023-07-28T12:12:28;5.72;;;2.55;;
27744;SDS011;61387;48.112;8.616;2023-07-28T12:14:55;5.00;;;2.90;;
27744;SDS011;61387;48.112;8.616;2023-07-28T12:17:24;4.50;;;2.87;;
27744;SDS011;61387;48.112;8.616;2023-07-28T12:20:02;4.45;;;2.50;;
27744;SDS011;61387;48.112;8.616;2023-07-28T12:22:36;6.62;;;3.35;;
27744;SDS011;61387;48.112;8.616;2023-07-28T12:25:03;6.50;;;3.05;;
27744;SDS011;61387;48.112;8.616;2023-07-28T12:27:29;5.25;;;2.97;;
27744;SDS011;61387;48.112;8.616;2023-07-28T12:29:55;3.87;;;2.70;;
27744;SDS011;61387;48.112;8.616;2023-07-28T12:32:20;4.83;;;2.80;;
27744;SDS011;61387;48.112;8.616;2023-07-28T12:34:47;5.00;;;2.90;;
27744;SDS011;61387;48.112;8.616;2023-07-28T12:37:14;5.43;;;3.10;;
27744;SDS011;61387;48.112;8.616;2023-07-28T12:39:40;4.57;;;3.00;;
27744;SDS011;61387;48.112;8.616;2023-07-28T12:42:06;4.63;;;2.80;;
27744;SDS011;61387;48.112;8.616;2023-07-28T12:44:32;4.07;;;2.65;;
27744;SDS011;61387;48.112;8.616;2023-07-28T12:46:58;5.37;;;3.30;;
27744;SDS011;61387;48.112;8.616;2023-07-28T12:49:24;4.70;;;3.07;;
27744;SDS011;61387;48.112;8.616;2023-07-28T12:51:50;5.40;;;2.70;;
27744;SDS011;61387;48.112;8.616;2023-07-28T12:54:16;4.90;;;3.07;;
27744;SDS011;61387;48.112;8.616;2023-07-28T12:56:44;4.43;;;2.90;;
27744;SDS011;61387;48.112;8.616;2023-07-28T12:59:11;4.65;;;2.85;;
27744;SDS011;61387;48.112;8.616;2023-07-28T13:01:37;5.23;;;3.00;;
27744;SDS011;61387;48.112;8.616;2023-07-28T13:04:03;3.90;;;2.90;;
27744;SDS011;61387;48.112;8.616;2023-07-28T13:06:28;3.33;;;2.70;;
27744;SDS011;61387;48.112;8.616;2023-07-28T13:08:54;5.55;;;3.00;;
27744;SDS011;61387;48.112;8.616;2023-07-28T13:11:20;4.62;;;3.20;;
27744;SDS011;61387;48.112;8.616;2023-07-28T13:13:45;6.15;;;3.17;;
27744;SDS011;61387;48.112;8.616;2023-07-28T13:16:11;4.70;;;3.10;;
27744;SDS011;61387;48.112;8.616;2023-07-28T13:18:37;4.77;;;3.10;;
27744;SDS011;61387;48.112;8.616;2023-07-28T13:21:05;5.32;;;2.97;;
27744;SDS011;61387;48.112;8.616;2023-07-28T13:23:35;6.18;;;3.40;;
27744;SDS011;61387;48.112;8.616;2023-07-28T13:26:01;5.50;;;3.37;;
27744;SDS011;61387;48.112;8.616;2023-07-28T13:28:29;5.68;;;3.37;;
27744;SDS011;61387;48.112;8.616;2023-07-28T13:30:55;5.40;;;3.20;;
27744;SDS011;61387;48.112;8.616;2023-07-28T13:33:21;4.62;;;3.00;;
27744;SDS011;61387;48.112;8.616;2023-07-28T13:35:47;4.43;;;3.10;;
27744;SDS011;61387;48.112;8.616;2023-07-28T13:38:13;4.68;;;3.35;;
27744;SDS011;61387;48.112;8.616;2023-07-28T13:40:39;4.73;;;3.30;;
27744;SDS011;61387;48.112;8.616;2023-07-28T13:43:05;5.83;;;3.97;;
27744;SDS011;61387;48.112;8.616;2023-07-28T13:45:31;5.00;;;3.33;;
27744;SDS011;61387;48.112;8.616;2023-07-28T13:47:57;3.30;;;2.87;;
27744;SDS011;61387;48.112;8.616;2023-07-28T13:50:23;6.20;;;3.43;;
27744;SDS011;61387;48.112;8.616;2023-07-28T13:52:49;3.27;;;2.90;;
27744;SDS011;61387;48.112;8.616;2023-07-28T13:55:15;5.63;;;3.23;;
27744;SDS011;61387;48.112;8.616;2023-07-28T13:57:41;5.90;;;3.10;;
27744;SDS011;61387;48.112;8.616;2023-07-28T14:00:07;4.83;;;3.17;;
27744;SDS011;61387;48.112;8.616;2023-07-28T14:02:34;5.32;;;3.03;;
27744;SDS011;61387;48.112;8.616;2023-07-28T14:05:00;4.57;;;2.75;;
27744;SDS011;61387;48.112;8.616;2023-07-28T14:07:26;4.70;;;2.57;;
27744;SDS011;61387;48.112;8.616;2023-07-28T14:09:52;3.50;;;2.20;;
27744;SDS011;61387;48.112;8.616;2023-07-28T14:12:18;5.45;;;2.92;;
27744;SDS011;61387;48.112;8.616;2023-07-28T14:14:44;4.73;;;2.30;;
27744;SDS011;61387;48.112;8.616;2023-07-28T14:17:10;3.90;;;2.45;;
27744;SDS011;61387;48.112;8.616;2023-07-28T14:19:37;4.60;;;2.40;;
27744;SDS011;61387;48.112;8.616;2023-07-28T14:22:04;3.72;;;2.12;;
27744;SDS011;61387;48.112;8.616;2023-07-28T14:24:29;5.23;;;2.13;;
27744;SDS011;61387;48.112;8.616;2023-07-28T14:26:55;3.80;;;2.43;;
27744;SDS011;61387;48.112;8.616;2023-07-28T14:29:21;3.77;;;2.20;;
27744;SDS011;61387;48.112;8.616;2023-07-28T14:31:47;4.40;;;2.10;;
27744;SDS011;61387;48.112;8.616;2023-07-28T14:34:13;2.90;;;1.70;;
27744;SDS011;61387;48.112;8.616;2023-07-28T14:36:39;2.92;;;1.80;;
27744;SDS011;61387;48.112;8.616;2023-07-28T14:39:05;3.78;;;1.70;;
27744;SDS011;61387;48.112;8.616;2023-07-28T14:41:31;3.20;;;2.10;;
27744;SDS011;61387;48.112;8.616;2023-07-28T14:43:57;2.97;;;2.17;;
27744;SDS011;61387;48.112;8.616;2023-07-28T14:46:23;1.95;;;1.80;;
27744;SDS011;61387;48.112;8.616;2023-07-28T14:48:50;2.83;;;1.50;;
27744;SDS011;61387;48.112;8.616;2023-07-28T14:51:16;2.78;;;1.65;;
27744;SDS011;61387;48.112;8.616;2023-07-28T14:53:42;3.20;;;2.08;;
27744;SDS011;61387;48.112;8.616;2023-07-28T14:56:11;3.45;;;1.90;;
27744;SDS011;61387;48.112;8.616;2023-07-28T14:58:37;2.67;;;1.47;;
27744;SDS011;61387;48.112;8.616;2023-07-28T15:01:05;2.50;;;1.77;;